Flight Track Log - Related Links

Times and Time Zones

All times are in EDT time to prevent confusion due to time zone crossing. See the ASQ5955 flight status page for this flight to view local times or setup timezone preferences in your user account.

Time Position Orientation Groundspeed Altitude Reporting Facility
EDT Latitude Longitude Course Direction KTS MPH feet Rate Location/Type
Fri 09:21:48 AM 42.0297 -87.8275 194° South 257 296 36,000  Level Chicago Center
Fri 09:22:45 AM 42.0000 -87.7667 123° Southeast 248 285 4,900 -10,086 Descending Chicago TRACON
Fri 09:24:53 AM 41.8681 -87.8156 195° South 241 277 4,900 379 Level Chicago Center
Fri 09:25:55 AM 41.8056 -87.8492 202° Southwest 242 278 6,100 1,790 Climbing Chicago Center
Fri 09:26:57 AM 41.7456 -87.8933 209° Southwest 251 289 8,600 2,613 Climbing Chicago Center
Fri 09:27:00 AM 41.4090 -88.1581 194° South  Level FlightAware Approximate
Fri 09:27:59 AM 41.6836 -87.9450 212° Southwest 265 305 11,500  Level Chicago Center
Fri 09:29:00 AM 41.6025 -87.9978 206° Southwest 275 316 13,900 1,854 Climbing Chicago Center
Fri 09:30:02 AM 41.5242 -88.0397 202° Southwest 303 349 15,300 1,355 Climbing Chicago Center
Fri 09:31:04 AM 41.4467 -88.0806 202° Southwest 322 371 16,700 1,500 Climbing Chicago Center
Fri 09:32:06 AM 41.3392 -88.1372 202° Southwest 342 394 18,400 1,548 Climbing Chicago Center
Fri 09:33:08 AM 41.2472 -88.1856 202° Southwest 354 407 19,900 1,512 Climbing Chicago Center
Fri 09:34:09 AM 41.1533 -88.2356 202° Southwest 361 415 21,500 1,610 Climbing Chicago Center
Fri 09:35:11 AM 41.0583 -88.2856 202° Southwest 366 421 23,200 1,597 Climbing Chicago Center
Fri 09:36:13 AM 40.9628 -88.3342 201° Southwest 369 425 24,800 1,597 Climbing Chicago Center
Fri 09:37:15 AM 40.8681 -88.3833 201° Southwest 367 422 26,500 1,742 Climbing Chicago Center
Fri 09:38:17 AM 40.7558 -88.4419 202° Southwest 363 418 28,400 1,756 Climbing Chicago Center
Fri 09:39:18 AM 40.6644 -88.4894 202° Southwest 357 411 30,100 1,561 Climbing Chicago Center
Fri 09:40:20 AM 40.5728 -88.5350 201° Southwest 355 409 31,600 1,403 Climbing Chicago Center
Fri 09:41:22 AM 40.4786 -88.5850 202° Southwest 363 418 33,000 1,452 Climbing Chicago Center
Fri 09:42:24 AM 40.3750 -88.6364 201° Southwest 368 423 34,600 1,403 Climbing Chicago Center
Fri 09:43:26 AM 40.2881 -88.7050 211° Southwest 372 428 35,900 677 Climbing Chicago Center
Fri 09:44:28 AM 40.2128 -88.8014 224° Southwest 379 436 36,000 49 Climbing Chicago Center
Fri 09:45:29 AM 40.1325 -88.9025 224° Southwest 392 451 36,000  Level Chicago Center
Fri 09:46:11 AM 40.0678 -88.9850 224° Southwest 395 455 36,000  Level Kansas City Center
Fri 09:47:13 AM 39.9883 -89.0842 224° Southwest 394 453 36,000  Level Kansas City Center
Fri 09:48:14 AM 39.9100 -89.1839 224° Southwest 393 452 36,000  Level Kansas City Center
Fri 09:49:16 AM 39.8317 -89.2831 224° Southwest 391 450 36,000  Level Kansas City Center
Fri 09:50:17 AM 39.7528 -89.3825 224° Southwest 392 451 36,000  Level Kansas City Center
Fri 09:51:19 AM 39.6797 -89.4736 224° Southwest 392 451 36,000  Level Kansas City Center
Fri 09:52:21 AM 39.5856 -89.5889 223° Southwest 390 449 36,000  Level Kansas City Center
Fri 09:53:22 AM 39.5081 -89.6883 225° Southwest 391 450 36,000  Level Kansas City Center
Fri 09:54:36 AM 39.4294 -89.7861 224° Southwest 392 451 36,000  Level Kansas City Center
Fri 09:55:38 AM 39.3353 -89.9025 224° Southwest 392 451 36,000  Level Kansas City Center
Fri 09:56:40 AM 39.2567 -89.9989 224° Southwest 392 451 36,000  Level Kansas City Center
Fri 09:57:41 AM 39.1783 -90.0953 224° Southwest 391 450 36,000  Level Kansas City Center
Fri 09:58:43 AM 39.0839 -90.2117 224° Southwest 392 451 36,000  Level Kansas City Center
Fri 09:59:45 AM 39.0053 -90.3081 224° Southwest 394 453 36,000  Level Kansas City Center
Fri 10:00:46 AM 38.9244 -90.4053 223° Southwest 392 451 36,000  Level Kansas City Center
Fri 10:01:48 AM 38.8469 -90.5042 225° Southwest 392 451 36,000  Level Kansas City Center
Fri 10:02:50 AM 38.7728 -90.6131 229° Southwest 401 461 36,000  Level Kansas City Center
Fri 10:03:51 AM 38.6936 -90.7325 230° Southwest 399 459 36,000  Level Kansas City Center
Fri 10:04:53 AM 38.6236 -90.8369 229° Southwest 392 451 36,000  Level Kansas City Center
Fri 10:05:55 AM 38.5542 -90.9406 229° Southwest 388 447 36,000  Level Kansas City Center
Fri 10:06:56 AM 38.4833 -91.0450 229° Southwest 390 449 36,000  Level Kansas City Center
Fri 10:07:58 AM 38.4125 -91.1497 229° Southwest 391 450 36,000  Level Kansas City Center
Fri 10:08:59 AM 38.3406 -91.2544 229° Southwest 393 452 36,000 -293 Level Kansas City Center
Fri 10:10:01 AM 38.2686 -91.3611 229° Southwest 396 456 35,400 -968 Descending Kansas City Center
Fri 10:11:03 AM 38.1847 -91.4842 229° Southwest 394 453 34,000 -1,317 Descending Kansas City Center
Fri 10:12:04 AM 38.1122 -91.5892 229° Southwest 392 451 32,700 -1,268 Descending Kansas City Center
Fri 10:13:06 AM 38.0400 -91.6908 228° Southwest 387 445 31,400 -1,452 Descending Kansas City Center
Fri 10:14:08 AM 37.9722 -91.7942 230° Southwest 381 438 29,700 -1,610 Descending Kansas City Center
Fri 10:15:09 AM 37.8992 -91.8983 228° Southwest 385 443 28,100 -1,610 Descending Kansas City Center
Fri 10:16:11 AM 37.8239 -92.0050 228° Southwest 394 453 26,400 -1,597 Descending Kansas City Center
Fri 10:17:13 AM 37.7519 -92.1086 229° Southwest 402 463 24,800 -1,171 Descending Kansas City Center
Fri 10:18:14 AM 37.6636 -92.2347 229° Southwest 402 463 24,000 -390 Descending Kansas City Center
Fri 10:19:16 AM 37.5992 -92.3281 229° Southwest 403 464 24,000  Level Kansas City Center
Fri 10:20:17 AM 37.5086 -92.4578 229° Southwest 405 466 24,000  Level Kansas City Center
Fri 10:21:19 AM 37.4322 -92.5653 228° Southwest 407 468 24,000  Level Kansas City Center
Fri 10:22:20 AM 37.3556 -92.6711 228° Southwest 407 468 24,000  Level Kansas City Center
Fri 10:23:22 AM 37.2786 -92.7767 228° Southwest 406 467 24,000  Level Kansas City Center
Fri 10:24:24 AM 37.2019 -92.8842 228° Southwest 408 470 24,000 -878 Level Kansas City Center
Fri 10:25:25 AM 37.1250 -92.9925 228° Southwest 412 474 22,200 -1,805 Descending Kansas City Center
Fri 10:26:27 AM 37.0500 -93.0947 227° Southwest 404 465 20,300 -1,854 Descending Kansas City Center
Fri 10:27:28 AM 36.9819 -93.1967 230° Southwest 392 451 18,400 -1,805 Descending Kansas City Center
Fri 10:28:30 AM 36.9133 -93.2908 228° Southwest 378 435 16,600 -1,805 Descending Kansas City Center
Fri 10:29:31 AM 36.8428 -93.3747 224° Southwest 367 422 14,700 -1,805 Descending Kansas City Center
Fri 10:30:33 AM 36.7753 -93.4592 225° Southwest 356 410 12,900 -1,805 Descending Kansas City Center
Fri 10:31:34 AM 36.7053 -93.5481 226° Southwest 312 359 11,000 -1,366 Descending Kansas City Center
Fri 10:32:36 AM 36.6511 -93.6153 225° Southwest 282 325 10,100 -732 Descending Kansas City Center
Fri 10:33:37 AM 36.5944 -93.6869 225° Southwest 289 333 9,500 -878 Descending Kansas City Center
Fri 10:34:39 AM 36.5383 -93.7561 225° Southwest 287 330 8,300 -1,073 Descending Kansas City Center
Fri 10:35:40 AM 36.4867 -93.8228 226° Southwest 283 326 7,300 -634 Descending Kansas City Center
Fri 10:36:42 AM 36.4189 -93.9058 225° Southwest 283 326 7,000 -145 Descending Kansas City Center
Fri 10:37:44 AM 36.3644 -93.9736 225° Southwest 278 320 7,000 -49 Level Kansas City Center
Fri 10:38:45 AM 36.3075 -94.0456 226° Southwest 283 326 6,900 -927 Descending Kansas City Center
Fri 10:39:47 AM 36.2533 -94.1131 225° Southwest 283 326 5,100 -1,122 Descending Kansas City Center
Fri 10:40:48 AM 36.1861 -94.1436 200° South 286 329 4,600 -488 Descending Kansas City Center
Fri 10:41:50 AM 36.1133 -94.1292 171° South 284 327 4,100 -242 Descending Kansas City Center
Fri 10:42:52 AM 36.0928 -94.1964 249° West 247 284 4,100  Level Kansas City Center

Login

Don't have an account? Register now (free) for customized features, flight alerts, and more!